createdAt,value
2016-04-26T00:00:19.310Z,3.12
2016-04-26T00:01:02.109Z,3.13
2016-04-26T00:01:46.097Z,3.11
2016-04-26T00:02:29.661Z,3.15
2016-04-26T00:03:12.583Z,3.06
2016-04-26T00:03:55.539Z,3.08
2016-04-26T00:04:38.511Z,3.12
2016-04-26T00:05:21.468Z,3.12
2016-04-26T00:06:04.408Z,3.03
2016-04-26T00:06:47.332Z,3.03
2016-04-26T00:07:30.273Z,3.12
2016-04-26T00:08:13.226Z,3.08
2016-04-26T00:08:56.181Z,3.03
2016-04-26T00:09:39.137Z,3.08
2016-04-26T00:10:21.918Z,3.06
2016-04-26T00:11:04.874Z,3.11
2016-04-26T00:11:47.798Z,3.11
2016-04-26T00:12:30.739Z,3.16
2016-04-26T00:13:13.661Z,3.24
2016-04-26T00:13:56.617Z,3.24
2016-04-26T00:14:39.557Z,3.24
2016-04-26T00:15:22.495Z,3.19
2016-04-26T00:16:06.466Z,3.24
2016-04-26T00:16:49.453Z,3.26
2016-04-26T00:17:32.315Z,3.21
2016-04-26T00:18:15.253Z,3.22
2016-04-26T00:18:58.209Z,3.21
2016-04-26T00:19:41.117Z,3.3
2016-04-26T00:20:24.055Z,3.31
2016-04-26T00:21:06.995Z,3.27
2016-04-26T00:21:49.169Z,3.27
2016-04-26T00:22:32.110Z,3.21
2016-04-26T00:23:15.047Z,3.26
2016-04-26T00:23:57.988Z,3.24
2016-04-26T00:24:40.912Z,3.27
2016-04-26T00:25:23.866Z,3.21
2016-04-26T00:26:06.821Z,3.29
2016-04-26T00:26:49.761Z,3.24
2016-04-26T00:27:32.733Z,3.21
2016-04-26T00:28:15.655Z,3.21
2016-04-26T00:28:58.594Z,3.22
2016-04-26T00:29:41.550Z,3.24
2016-04-26T00:30:24.488Z,3.18
2016-04-26T00:31:07.507Z,3.22
2016-04-26T00:31:50.306Z,3.21
2016-04-26T00:32:33.871Z,3.27
2016-04-26T00:33:16.808Z,3.24
2016-04-26T00:33:59.749Z,3.26
2016-04-26T00:34:45.860Z,3.24
2016-04-26T00:35:28.829Z,3.26
2016-04-26T00:36:11.801Z,3.21
2016-04-26T00:36:54.773Z,3.19
2016-04-26T00:37:37.729Z,3.22
2016-04-26T00:38:20.682Z,3.12
2016-04-26T00:39:03.637Z,3.06
2016-04-26T00:39:46.609Z,3.09
2016-04-26T00:40:29.562Z,3.11
2016-04-26T00:41:12.534Z,3.11
2016-04-26T00:41:55.504Z,3.11
2016-04-26T00:42:38.460Z,3.06
2016-04-26T00:43:21.398Z,3.08
2016-04-26T00:44:04.384Z,3.03
2016-04-26T00:44:47.340Z,3.09
2016-04-26T00:45:30.325Z,3.03
2016-04-26T00:46:13.437Z,3
2016-04-26T00:46:55.767Z,2.93
2016-04-26T00:47:38.443Z,2.95
2016-04-26T00:48:21.428Z,2.88
2016-04-26T00:49:04.367Z,2.82
2016-04-26T00:49:47.322Z,2.9
2016-04-26T00:50:30.260Z,2.76
2016-04-26T00:51:13.232Z,2.83
2016-04-26T00:51:56.172Z,2.83
2016-04-26T00:52:39.144Z,2.83
2016-04-26T00:53:22.097Z,2.83
2016-04-26T00:54:05.053Z,2.77
2016-04-26T00:54:47.992Z,2.72
2016-04-26T00:55:30.980Z,2.76
2016-04-26T00:56:13.933Z,2.75
2016-04-26T00:56:56.904Z,2.76
2016-04-26T00:57:39.844Z,2.73
2016-04-26T00:58:22.813Z,2.75
2016-04-26T00:59:05.769Z,2.65
2016-04-26T00:59:48.710Z,2.72
2016-04-26T01:00:31.680Z,2.72
2016-04-26T01:01:15.321Z,2.68
2016-04-26T01:01:58.918Z,2.64
2016-04-26T01:02:41.967Z,2.62
2016-04-26T01:03:24.920Z,2.55
2016-04-26T01:04:07.861Z,2.5
2016-04-26T01:04:50.817Z,2.52
2016-04-26T01:05:33.772Z,2.57
2016-04-26T01:06:16.726Z,2.55
2016-04-26T01:06:59.697Z,2.51
2016-04-26T01:07:42.637Z,2.57
2016-04-26T01:08:25.606Z,2.47
2016-04-26T01:09:08.562Z,2.5
2016-04-26T01:09:51.548Z,2.5
2016-04-26T01:10:33.724Z,2.5
2016-04-26T01:11:16.677Z,2.51
2016-04-26T01:11:59.648Z,2.41
2016-04-26T01:12:42.603Z,2.44
2016-04-26T01:13:25.572Z,2.51
2016-04-26T01:14:08.513Z,2.46
2016-04-26T01:14:51.484Z,2.4
2016-04-26T01:15:34.409Z,2.4
2016-04-26T01:16:18.253Z,2.36
2016-04-26T01:17:02.396Z,2.33
2016-04-26T01:17:45.851Z,2.39
2016-04-26T01:18:28.804Z,2.34
2016-04-26T01:19:11.761Z,2.36
2016-04-26T01:19:54.701Z,2.34
2016-04-26T01:20:37.672Z,2.26
2016-04-26T01:21:20.641Z,2.32
2016-04-26T01:22:03.611Z,2.26
2016-04-26T01:22:46.568Z,2.4
2016-04-26T01:23:29.537Z,2.36
2016-04-26T01:24:12.492Z,2.33
2016-04-26T01:24:55.464Z,2.25
2016-04-26T01:25:38.436Z,2.23
2016-04-26T01:26:21.233Z,2.25
2016-04-26T01:27:04.188Z,2.18
2016-04-26T01:27:47.160Z,2.12
2016-04-26T01:28:30.097Z,2.22
2016-04-26T01:29:13.069Z,2.15
2016-04-26T01:29:56.041Z,2.19
2016-04-26T01:30:38.980Z,2.18
2016-04-26T01:31:22.308Z,2.21
2016-04-26T01:32:05.030Z,2.14
2016-04-26T01:32:48.001Z,2.12
2016-04-26T01:33:30.969Z,2.15
2016-04-26T01:34:13.941Z,2.15
2016-04-26T01:34:56.897Z,2.08
2016-04-26T01:35:39.853Z,2.07
2016-04-26T01:36:22.791Z,1.98
2016-04-26T01:37:05.762Z,2.03
2016-04-26T01:37:48.733Z,2.04
2016-04-26T01:38:31.702Z,2.07
2016-04-26T01:39:14.643Z,2.04
2016-04-26T01:39:57.677Z,2.07
2016-04-26T01:40:40.663Z,2.04
2016-04-26T01:41:23.632Z,2.04
2016-04-26T01:42:06.587Z,2.04
2016-04-26T01:42:49.560Z,1.98
2016-04-26T01:43:32.513Z,2.03
2016-04-26T01:44:15.468Z,2.03
2016-04-26T01:44:58.440Z,2.04
2016-04-26T01:45:41.379Z,2.05
2016-04-26T01:46:24.036Z,2.04
2016-04-26T01:47:07.399Z,1.97
2016-04-26T01:47:50.385Z,1.95
2016-04-26T01:48:33.339Z,2.03
2016-04-26T01:49:16.309Z,1.95
2016-04-26T01:49:59.281Z,2.03
2016-04-26T01:50:42.222Z,2.04
2016-04-26T01:51:25.175Z,2.03
2016-04-26T01:52:08.114Z,2.07
2016-04-26T01:52:51.087Z,2.03
2016-04-26T01:53:34.024Z,1.97
2016-04-26T01:54:16.995Z,1.97
2016-04-26T01:54:59.966Z,2.07
2016-04-26T01:55:42.923Z,1.95
2016-04-26T01:56:25.876Z,1.97
2016-04-26T01:57:08.831Z,2.01
2016-04-26T01:57:51.786Z,1.97
2016-04-26T01:58:34.740Z,2
2016-04-26T01:59:17.712Z,2
2016-04-26T02:00:00.667Z,1.89
2016-04-26T02:00:43.608Z,1.88
2016-04-26T02:01:26.577Z,1.93
2016-04-26T02:02:11.611Z,2.07
2016-04-26T02:02:54.285Z,1.93
2016-04-26T02:03:37.254Z,1.78
2016-04-26T02:04:20.210Z,1.95
2016-04-26T02:05:03.166Z,1.98
2016-04-26T02:05:46.137Z,2.03
2016-04-26T02:06:29.105Z,1.95
2016-04-26T02:07:12.062Z,1.93
2016-04-26T02:07:55.033Z,2
2016-04-26T02:08:38.002Z,1.89
2016-04-26T02:09:20.941Z,1.86
2016-04-26T02:10:03.899Z,1.98
2016-04-26T02:10:46.885Z,1.92
2016-04-26T02:11:29.838Z,1.93
2016-04-26T02:12:12.824Z,1.85
2016-04-26T02:12:55.765Z,1.81
2016-04-26T02:13:38.734Z,1.92
2016-04-26T02:14:21.705Z,1.88
2016-04-26T02:15:04.707Z,1.92
2016-04-26T02:15:47.664Z,1.92
2016-04-26T02:16:30.632Z,2.01
2016-04-26T02:17:14.604Z,2
2016-04-26T02:17:57.248Z,1.84
2016-04-26T02:18:40.203Z,1.89
2016-04-26T02:19:23.156Z,1.98
2016-04-26T02:20:06.112Z,1.92
2016-04-26T02:20:48.912Z,1.79
2016-04-26T02:21:31.912Z,2
2016-04-26T02:22:14.898Z,1.95
2016-04-26T02:22:57.908Z,1.93
2016-04-26T02:23:40.755Z,1.86
2016-04-26T02:24:23.692Z,1.93
2016-04-26T02:25:06.664Z,1.92
2016-04-26T02:25:49.635Z,1.84
2016-04-26T02:26:32.619Z,1.85
2016-04-26T02:27:15.607Z,1.82
2016-04-26T02:27:58.594Z,1.86
2016-04-26T02:28:41.549Z,1.84
2016-04-26T02:29:24.502Z,1.85
2016-04-26T02:30:07.474Z,1.89
2016-04-26T02:30:50.460Z,1.88
2016-04-26T02:31:33.445Z,1.92
2016-04-26T02:32:16.168Z,1.88
2016-04-26T02:32:59.779Z,1.85
2016-04-26T02:33:42.718Z,1.85
2016-04-26T02:34:25.687Z,1.82
2016-04-26T02:35:08.643Z,1.79
2016-04-26T02:35:51.631Z,1.78
2016-04-26T02:36:34.428Z,1.78
2016-04-26T02:37:17.384Z,1.79
2016-04-26T02:38:00.354Z,1.86
2016-04-26T02:38:43.312Z,1.82
2016-04-26T02:39:26.280Z,1.81
2016-04-26T02:40:09.235Z,1.85
2016-04-26T02:40:52.207Z,1.86
2016-04-26T02:41:35.145Z,1.89
2016-04-26T02:42:18.115Z,1.85
2016-04-26T02:43:01.086Z,1.82
2016-04-26T02:43:44.043Z,1.84
2016-04-26T02:44:27.028Z,1.81
2016-04-26T02:45:09.968Z,1.75
2016-04-26T02:45:52.955Z,1.79
2016-04-26T02:46:35.783Z,1.81
2016-04-26T02:47:18.613Z,1.81
2016-04-26T02:48:01.320Z,1.89
2016-04-26T02:48:44.275Z,1.84
2016-04-26T02:49:27.244Z,1.86
2016-04-26T02:50:10.215Z,1.82
2016-04-26T02:50:53.171Z,1.74
2016-04-26T02:51:35.952Z,1.79
2016-04-26T02:52:18.925Z,1.75
2016-04-26T02:53:01.880Z,1.78
2016-04-26T02:53:44.835Z,1.71
2016-04-26T02:54:27.819Z,1.79
2016-04-26T02:55:10.776Z,1.78
2016-04-26T02:55:53.731Z,1.76
2016-04-26T02:56:36.699Z,1.82
2016-04-26T02:57:19.656Z,1.76
2016-04-26T02:58:02.612Z,1.78
2016-04-26T02:58:45.552Z,1.76
2016-04-26T02:59:28.505Z,1.74
2016-04-26T03:00:11.461Z,1.78
2016-04-26T03:00:54.417Z,1.75
2016-04-26T03:01:37.371Z,1.76
2016-04-26T03:02:20.685Z,1.76
2016-04-26T03:03:03.609Z,1.75
2016-04-26T03:03:46.582Z,1.78
2016-04-26T03:04:29.535Z,1.74
2016-04-26T03:05:12.521Z,1.74
2016-04-26T03:05:55.462Z,1.78
2016-04-26T03:06:38.415Z,1.68
2016-04-26T03:07:21.370Z,1.75
2016-04-26T03:08:04.357Z,1.78
2016-04-26T03:08:47.313Z,1.71
2016-04-26T03:09:30.282Z,1.71
2016-04-26T03:10:13.253Z,1.68
2016-04-26T03:10:56.209Z,1.64
2016-04-26T03:11:39.178Z,1.68
2016-04-26T03:12:22.103Z,1.71
2016-04-26T03:13:05.074Z,1.74
2016-04-26T03:13:48.030Z,1.68
2016-04-26T03:14:30.998Z,1.7
2016-04-26T03:15:13.939Z,1.7
2016-04-26T03:15:56.878Z,1.76
2016-04-26T03:16:39.847Z,1.74
2016-04-26T03:17:22.696Z,1.74
2016-04-26T03:18:05.463Z,1.68
2016-04-26T03:18:48.435Z,1.74
2016-04-26T03:19:31.373Z,1.71
2016-04-26T03:20:14.343Z,1.74
2016-04-26T03:20:57.300Z,1.66
2016-04-26T03:21:40.268Z,1.75
2016-04-26T03:22:23.209Z,1.64
2016-04-26T03:23:06.180Z,1.71
2016-04-26T03:23:49.120Z,1.71
2016-04-26T03:24:32.089Z,1.66
2016-04-26T03:25:15.076Z,1.75
2016-04-26T03:25:58.048Z,1.61
2016-04-26T03:26:41.032Z,1.61
2016-04-26T03:27:23.987Z,1.67
2016-04-26T03:28:06.944Z,1.63
2016-04-26T03:28:49.900Z,1.66
2016-04-26T03:29:32.853Z,1.64
2016-04-26T03:30:15.808Z,1.61
2016-04-26T03:30:58.780Z,1.57
2016-04-26T03:31:43.470Z,1.56
2016-04-26T03:32:26.330Z,1.61
2016-04-26T03:33:09.316Z,1.61
2016-04-26T03:33:52.272Z,1.6
2016-04-26T03:34:35.241Z,1.6
2016-04-26T03:35:18.181Z,1.61
2016-04-26T03:36:01.168Z,1.6
2016-04-26T03:36:44.108Z,1.56
2016-04-26T03:37:27.093Z,1.61
2016-04-26T03:38:10.080Z,1.63
2016-04-26T03:38:53.036Z,1.57
2016-04-26T03:39:35.989Z,1.61
2016-04-26T03:40:18.976Z,1.6
2016-04-26T03:41:01.947Z,1.6
2016-04-26T03:41:44.903Z,1.61
2016-04-26T03:42:27.872Z,1.61
2016-04-26T03:43:10.812Z,1.58
2016-04-26T03:43:53.799Z,1.6
2016-04-26T03:44:36.737Z,1.67
2016-04-26T03:45:19.692Z,1.58
2016-04-26T03:46:02.664Z,1.56
2016-04-26T03:46:45.432Z,1.61
2016-04-26T03:47:28.870Z,1.61
2016-04-26T03:48:11.700Z,1.57
2016-04-26T03:48:54.657Z,1.71
2016-04-26T03:49:37.626Z,1.6
2016-04-26T03:50:20.581Z,1.61
2016-04-26T03:51:03.584Z,1.64
2016-04-26T03:51:46.540Z,1.6
2016-04-26T03:52:29.509Z,1.66
2016-04-26T03:53:12.511Z,1.67
2016-04-26T03:53:55.467Z,1.58
2016-04-26T03:54:38.404Z,1.57
2016-04-26T03:55:21.375Z,1.61
2016-04-26T03:56:04.331Z,1.58
2016-04-26T03:56:47.287Z,1.66
2016-04-26T03:57:30.256Z,1.7
2016-04-26T03:58:13.227Z,1.7
2016-04-26T03:58:56.184Z,1.7
2016-04-26T03:59:39.153Z,1.71
2016-04-26T04:00:22.108Z,1.75
2016-04-26T04:01:05.078Z,1.75
2016-04-26T04:01:48.895Z,1.74
2016-04-26T04:02:33.598Z,1.74
2016-04-26T04:03:16.366Z,1.71
2016-04-26T04:03:59.305Z,1.68
2016-04-26T04:04:42.258Z,1.75
2016-04-26T04:05:25.231Z,1.75
2016-04-26T04:06:08.202Z,1.7
2016-04-26T04:06:51.142Z,1.75
2016-04-26T04:07:34.127Z,1.7
2016-04-26T04:08:17.114Z,1.75
2016-04-26T04:09:00.054Z,1.68
2016-04-26T04:09:43.010Z,1.74
2016-04-26T04:10:26.004Z,1.68
2016-04-26T04:11:08.960Z,1.75
2016-04-26T04:11:51.915Z,1.74
2016-04-26T04:12:34.884Z,1.76
2016-04-26T04:13:17.856Z,1.78
2016-04-26T04:14:00.812Z,1.78
2016-04-26T04:14:43.767Z,1.76
2016-04-26T04:15:26.751Z,1.75
2016-04-26T04:16:09.707Z,1.76
2016-04-26T04:16:54.429Z,1.84
2016-04-26T04:17:37.273Z,1.82
2016-04-26T04:18:20.306Z,1.79
2016-04-26T04:19:03.262Z,1.75
2016-04-26T04:19:46.234Z,1.76
2016-04-26T04:20:29.187Z,1.79
2016-04-26T04:21:12.173Z,1.81
2016-04-26T04:21:55.130Z,1.79
2016-04-26T04:22:38.098Z,1.78
2016-04-26T04:23:21.054Z,1.82
2016-04-26T04:24:04.011Z,1.79
2016-04-26T04:24:46.981Z,1.86
2016-04-26T04:25:29.950Z,1.78
2016-04-26T04:26:12.906Z,1.79
2016-04-26T04:26:55.862Z,1.81
2016-04-26T04:27:38.815Z,1.82
2016-04-26T04:28:21.802Z,1.74
2016-04-26T04:29:04.602Z,1.81
2016-04-26T04:29:47.572Z,1.85
2016-04-26T04:30:30.510Z,1.82
2016-04-26T04:31:13.467Z,1.84
2016-04-26T04:31:57.283Z,1.92
2016-04-26T04:32:40.033Z,1.89
2016-04-26T04:33:22.706Z,1.85
2016-04-26T04:34:05.678Z,1.86
2016-04-26T04:34:48.618Z,1.88
2016-04-26T04:35:31.586Z,1.95
2016-04-26T04:36:14.558Z,1.95
2016-04-26T04:36:57.529Z,1.97
2016-04-26T04:37:40.513Z,1.95
2016-04-26T04:38:23.469Z,1.84
2016-04-26T04:39:06.426Z,1.93
2016-04-26T04:39:49.507Z,1.93
2016-04-26T04:40:32.475Z,1.85
2016-04-26T04:41:15.431Z,1.85
2016-04-26T04:41:58.418Z,1.82
2016-04-26T04:42:41.371Z,1.95
2016-04-26T04:43:24.327Z,2
2016-04-26T04:44:07.282Z,2.01
2016-04-26T04:44:50.270Z,1.98
2016-04-26T04:45:33.238Z,1.95
2016-04-26T04:46:16.210Z,1.98
2016-04-26T04:46:59.040Z,2
2016-04-26T04:47:41.650Z,1.92
2016-04-26T04:48:24.700Z,1.97
2016-04-26T04:49:07.671Z,2.04
2016-04-26T04:49:50.626Z,2.01
2016-04-26T04:50:33.595Z,2.04
2016-04-26T04:51:16.567Z,2.03
2016-04-26T04:51:59.539Z,2.03
2016-04-26T04:52:42.476Z,2.03
2016-04-26T04:53:25.463Z,2.01
2016-04-26T04:54:08.403Z,2.12
2016-04-26T04:54:51.390Z,2.08
2016-04-26T04:55:34.344Z,2.07
2016-04-26T04:56:17.299Z,2.19
2016-04-26T04:57:00.270Z,2.14
2016-04-26T04:57:43.255Z,2.16
2016-04-26T04:58:26.211Z,2.21
2016-04-26T04:59:09.167Z,2.28
2016-04-26T04:59:52.122Z,2.22
2016-04-26T05:00:35.075Z,2.32
2016-04-26T05:01:18.047Z,2.36
2016-04-26T05:02:01.800Z,2.3
2016-04-26T05:02:45.316Z,2.36
2016-04-26T05:03:28.177Z,2.34
2016-04-26T05:04:11.164Z,2.43
2016-04-26T05:04:54.121Z,2.46
2016-04-26T05:05:37.074Z,2.47
2016-04-26T05:06:20.044Z,2.44
2016-04-26T05:07:03.002Z,2.51
2016-04-26T05:07:45.956Z,2.46
2016-04-26T05:08:28.909Z,2.52
2016-04-26T05:09:11.897Z,2.5
2016-04-26T05:09:54.838Z,2.51
2016-04-26T05:10:37.838Z,2.59
2016-04-26T05:11:20.793Z,2.62
2016-04-26T05:12:03.749Z,2.54
2016-04-26T05:12:46.720Z,2.61
2016-04-26T05:13:29.688Z,2.82
2016-04-26T05:14:12.645Z,2.8
2016-04-26T05:14:55.601Z,2.75
2016-04-26T05:15:38.569Z,2.75
2016-04-26T05:16:21.525Z,2.76
2016-04-26T05:17:04.465Z,2.76
2016-04-26T05:17:48.139Z,2.73
2016-04-26T05:18:32.623Z,2.76
2016-04-26T05:19:15.612Z,2.72
2016-04-26T05:19:58.583Z,2.73
2016-04-26T05:20:41.568Z,2.69
2016-04-26T05:21:24.539Z,2.75
2016-04-26T05:22:07.510Z,2.73
2016-04-26T05:22:50.465Z,2.79
2016-04-26T05:23:33.294Z,2.73
2016-04-26T05:24:16.265Z,2.7
2016-04-26T05:24:59.221Z,2.69
2016-04-26T05:25:42.175Z,2.75
2016-04-26T05:26:25.145Z,2.72
2016-04-26T05:27:08.117Z,2.75
2016-04-26T05:27:51.104Z,2.76
2016-04-26T05:28:34.042Z,2.76
2016-04-26T05:29:17.014Z,2.72
2016-04-26T05:29:59.953Z,2.73
2016-04-26T05:30:42.906Z,2.73
2016-04-26T05:31:25.769Z,2.73
2016-04-26T05:32:10.069Z,2.76
2016-04-26T05:32:53.899Z,2.73
2016-04-26T05:33:36.852Z,2.72
2016-04-26T05:34:19.792Z,2.73
2016-04-26T05:35:02.764Z,2.76
2016-04-26T05:35:45.702Z,2.83
2016-04-26T05:36:28.657Z,2.88
2016-04-26T05:37:11.644Z,2.9
2016-04-26T05:37:54.615Z,2.83
2016-04-26T05:38:37.568Z,2.91
2016-04-26T05:39:20.524Z,3
2016-04-26T05:40:03.496Z,2.85
2016-04-26T05:40:46.465Z,3.06
2016-04-26T05:41:29.451Z,2.98
2016-04-26T05:42:12.438Z,3.06
2016-04-26T05:42:55.238Z,3.08
2016-04-26T05:43:38.223Z,3.12
2016-04-26T05:44:21.210Z,3.08
2016-04-26T05:45:04.165Z,3.11
2016-04-26T05:45:47.106Z,3.11
2016-04-26T05:46:30.074Z,3.11
2016-04-26T05:47:14.201Z,3.11
2016-04-26T05:47:57.876Z,3.13
2016-04-26T05:48:41.095Z,3.18
2016-04-26T05:49:24.129Z,3.09
2016-04-26T05:50:06.992Z,3.13
2016-04-26T05:50:49.745Z,3.16
2016-04-26T05:51:32.729Z,3.09
2016-04-26T05:52:15.684Z,3.26
2016-04-26T05:52:58.671Z,3.18
2016-04-26T05:53:41.625Z,3.26
2016-04-26T05:54:24.581Z,3.24
2016-04-26T05:55:07.583Z,3.27
2016-04-26T05:55:50.523Z,3.18
2016-04-26T05:56:33.492Z,3.22
2016-04-26T05:57:16.624Z,3.19
2016-04-26T05:58:00.303Z,3.34
2016-04-26T05:58:43.881Z,3.22
2016-04-26T05:59:27.431Z,3.33
2016-04-26T06:00:10.621Z,3.21
2016-04-26T06:00:53.857Z,3.33
2016-04-26T06:01:38.133Z,3.37
2016-04-26T06:02:20.964Z,3.4
2016-04-26T06:03:03.919Z,3.33
2016-04-26T06:03:46.888Z,3.3
2016-04-26T06:04:29.891Z,3.36
2016-04-26T06:05:12.926Z,3.45
2016-04-26T06:05:55.959Z,3.43
2016-04-26T06:06:38.913Z,3.37
2016-04-26T06:07:21.869Z,3.55
2016-04-26T06:08:04.871Z,3.49
2016-04-26T06:08:47.842Z,3.63
2016-04-26T06:09:30.811Z,3.64
2016-04-26T06:10:13.782Z,3.71
2016-04-26T06:10:56.738Z,3.77
2016-04-26T06:11:39.691Z,3.77
2016-04-26T06:12:22.647Z,3.7
2016-04-26T06:13:05.681Z,3.71
2016-04-26T06:13:48.387Z,3.76
2016-04-26T06:14:31.355Z,3.85
2016-04-26T06:15:14.312Z,3.74
2016-04-26T06:15:57.268Z,3.78
2016-04-26T06:16:40.236Z,3.76
2016-04-26T06:17:22.911Z,3.82
2016-04-26T06:18:06.835Z,3.89
2016-04-26T06:18:50.229Z,3.86
2016-04-26T06:19:33.213Z,3.82
2016-04-26T06:20:16.200Z,3.92
2016-04-26T06:20:59.187Z,3.86
2016-04-26T06:21:42.156Z,3.91
2016-04-26T06:22:24.318Z,3.89
2016-04-26T06:23:07.274Z,3.91
2016-04-26T06:23:50.246Z,3.82
2016-04-26T06:24:33.230Z,3.82
2016-04-26T06:25:16.216Z,3.76
2016-04-26T06:25:59.188Z,3.68
2016-04-26T06:26:42.157Z,3.77
2016-04-26T06:27:25.128Z,3.73
2016-04-26T06:28:08.084Z,3.74
2016-04-26T06:28:54.259Z,3.7
2016-04-26T06:29:38.431Z,3.58
2016-04-26T06:30:21.402Z,3.34
2016-04-26T06:31:04.358Z,3.41
2016-04-26T06:31:47.327Z,3.41
2016-04-26T06:32:31.204Z,3.36
2016-04-26T06:33:14.426Z,3.18
2016-04-26T06:33:57.381Z,3.16
2016-04-26T06:34:40.709Z,3.03
2016-04-26T06:35:23.712Z,3.05
2016-04-26T06:36:06.684Z,2.98
2016-04-26T06:36:49.655Z,3.06
2016-04-26T06:37:32.592Z,2.88
2016-04-26T06:38:13.986Z,2.95
2016-04-26T06:38:56.941Z,3
2016-04-26T06:39:39.894Z,2.94
2016-04-26T06:40:22.867Z,2.9
2016-04-26T06:41:05.838Z,2.91
2016-04-26T06:41:48.791Z,2.91
2016-04-26T06:42:31.777Z,2.9
2016-04-26T06:43:14.734Z,2.9
2016-04-26T06:43:57.689Z,2.9
2016-04-26T06:44:40.642Z,2.91
2016-04-26T06:45:23.630Z,2.82
2016-04-26T06:46:06.617Z,2.88
2016-04-26T06:46:49.586Z,2.83
2016-04-26T06:47:32.088Z,2.98
2016-04-26T06:48:15.435Z,3.01
2016-04-26T06:48:59.984Z,3.12
2016-04-26T06:49:42.937Z,3.11
2016-04-26T06:50:25.924Z,3.11
2016-04-26T06:51:08.880Z,3.11
2016-04-26T06:51:51.851Z,3.18
2016-04-26T06:52:34.804Z,3.22
2016-04-26T06:53:17.776Z,3.16
2016-04-26T06:54:00.763Z,3.24
2016-04-26T06:54:43.732Z,3.09
2016-04-26T06:55:26.688Z,3.13
2016-04-26T06:56:09.628Z,3.11
2016-04-26T06:56:52.802Z,3.08
2016-04-26T06:57:35.802Z,3.12
2016-04-26T06:58:18.758Z,3.13
2016-04-26T06:59:01.745Z,3.16
2016-04-26T06:59:44.698Z,3.06
2016-04-26T07:00:27.685Z,3.05
2016-04-26T07:01:10.641Z,3.01
2016-04-26T07:01:53.612Z,2.95
2016-04-26T07:02:39.972Z,2.97
2016-04-26T07:03:24.287Z,2.88
2016-04-26T07:04:07.243Z,2.79
2016-04-26T07:04:50.215Z,2.83
2016-04-26T07:05:33.184Z,2.69
2016-04-26T07:06:16.156Z,2.55
2016-04-26T07:06:59.111Z,2.5
2016-04-26T07:07:42.079Z,2.55
2016-04-26T07:08:25.067Z,2.5
2016-04-26T07:09:08.007Z,2.41
2016-04-26T07:09:50.978Z,2.34
2016-04-26T07:10:33.962Z,2.26
2016-04-26T07:11:16.950Z,2.33
2016-04-26T07:11:59.749Z,2.26
2016-04-26T07:12:42.749Z,2.21
2016-04-26T07:13:25.783Z,2.15
2016-04-26T07:14:08.802Z,2.12
2016-04-26T07:14:51.805Z,2.15
2016-04-26T07:15:34.789Z,2.18
2016-04-26T07:16:18.588Z,2.15
2016-04-26T07:17:01.544Z,2.23
2016-04-26T07:17:44.263Z,2.22
2016-04-26T07:18:27.078Z,2.26
2016-04-26T07:19:10.050Z,2.43
2016-04-26T07:19:53.005Z,2.46
2016-04-26T07:20:35.958Z,2.5
2016-04-26T07:21:18.899Z,2.41
2016-04-26T07:22:01.885Z,2.5
2016-04-26T07:22:44.718Z,2.47
2016-04-26T07:23:27.596Z,2.5
2016-04-26T07:24:10.567Z,2.64
2016-04-26T07:24:53.507Z,2.68
2016-04-26T07:25:36.523Z,2.61
2016-04-26T07:26:19.588Z,2.61
2016-04-26T07:27:02.607Z,2.72
2016-04-26T07:27:45.591Z,2.7
2016-04-26T07:28:28.548Z,2.7
2016-04-26T07:29:11.487Z,2.72
2016-04-26T07:29:54.443Z,2.7
2016-04-26T07:30:37.412Z,2.79
2016-04-26T07:31:20.461Z,2.8
2016-04-26T07:32:03.417Z,2.77
2016-04-26T07:32:47.417Z,2.76
2016-04-26T07:33:30.451Z,2.83
2016-04-26T07:34:16.234Z,2.83
2016-04-26T07:34:59.192Z,2.9
2016-04-26T07:35:42.145Z,2.85
2016-04-26T07:36:25.083Z,2.87
2016-04-26T07:37:08.055Z,2.82
2016-04-26T07:37:51.008Z,2.83
2016-04-26T07:38:33.981Z,2.83
2016-04-26T07:39:16.952Z,2.75
2016-04-26T07:39:59.767Z,2.75
2016-04-26T07:40:42.720Z,2.77
2016-04-26T07:41:25.675Z,2.79
2016-04-26T07:42:08.647Z,2.82
2016-04-26T07:42:51.588Z,2.9
2016-04-26T07:43:34.525Z,2.85
2016-04-26T07:44:17.496Z,2.8
2016-04-26T07:45:00.436Z,2.8
2016-04-26T07:45:43.421Z,2.87
2016-04-26T07:46:26.376Z,2.97
2016-04-26T07:47:09.380Z,2.88
2016-04-26T07:47:53.194Z,2.94
2016-04-26T07:48:38.022Z,2.95
2016-04-26T07:49:21.291Z,3.03
2016-04-26T07:50:04.263Z,3.01
2016-04-26T07:50:47.263Z,3
2016-04-26T07:51:30.202Z,3.11
2016-04-26T07:52:13.190Z,3.12
2016-04-26T07:52:56.161Z,3.06
2016-04-26T07:53:39.130Z,3.15
2016-04-26T07:54:22.070Z,3.09
2016-04-26T07:55:05.041Z,3.08
2016-04-26T07:55:48.010Z,3.11
2016-04-26T07:56:31.012Z,3.06
2016-04-26T07:57:13.969Z,3.16
2016-04-26T07:57:56.925Z,3.19
2016-04-26T07:58:39.879Z,3.15
2016-04-26T07:59:22.818Z,3.18
2016-04-26T08:00:05.790Z,3.12
2016-04-26T08:00:48.727Z,3.12
2016-04-26T08:01:31.714Z,3.18
2016-04-26T08:02:14.669Z,3.05
2016-04-26T08:02:57.657Z,3.15
2016-04-26T08:03:40.876Z,3.21
2016-04-26T08:04:23.675Z,3.18
2016-04-26T08:05:06.631Z,3.22
2016-04-26T08:05:49.584Z,3.26
2016-04-26T08:06:32.555Z,3.26
2016-04-26T08:07:15.511Z,3.21
2016-04-26T08:07:58.483Z,3.16
2016-04-26T08:08:41.436Z,3.21
2016-04-26T08:09:24.392Z,3.19
2016-04-26T08:10:07.379Z,3.24
2016-04-26T08:10:50.332Z,3.26
2016-04-26T08:11:33.288Z,3.29
2016-04-26T08:12:16.259Z,3.4
2016-04-26T08:12:59.434Z,3.48
2016-04-26T08:13:42.403Z,3.45
2016-04-26T08:14:25.358Z,3.4
2016-04-26T08:15:08.345Z,3.5
2016-04-26T08:15:51.299Z,3.56
2016-04-26T08:16:34.254Z,3.63
2016-04-26T08:17:17.225Z,3.64
2016-04-26T08:18:00.697Z,3.64
2016-04-26T08:18:44.728Z,3.77
2016-04-26T08:19:26.981Z,3.71
2016-04-26T08:20:09.938Z,3.71
2016-04-26T08:20:52.893Z,3.67
2016-04-26T08:21:35.846Z,3.71
2016-04-26T08:22:18.833Z,3.7
2016-04-26T08:23:01.789Z,3.66
2016-04-26T08:23:44.742Z,3.71
2016-04-26T08:24:27.557Z,3.76
2016-04-26T08:25:10.513Z,3.74
2016-04-26T08:25:53.468Z,3.77
2016-04-26T08:26:36.437Z,3.71
2016-04-26T08:27:19.409Z,3.82
2016-04-26T08:28:02.380Z,3.77
2016-04-26T08:28:45.340Z,3.74
2016-04-26T08:29:28.327Z,3.88
2016-04-26T08:30:11.286Z,3.91
2016-04-26T08:30:54.283Z,3.86
2016-04-26T08:31:37.236Z,4.02
2016-04-26T08:32:20.250Z,4.03
2016-04-26T08:33:03.544Z,4.03
2016-04-26T08:33:46.341Z,4.1
2016-04-26T08:34:29.495Z,4.04
2016-04-26T08:35:12.382Z,4.16
2016-04-26T08:35:55.477Z,4.14
2016-04-26T08:36:38.415Z,4.12
2016-04-26T08:37:21.261Z,4.28
2016-04-26T08:38:04.091Z,4.32
2016-04-26T08:38:47.044Z,4.43
2016-04-26T08:39:30.031Z,4.57
2016-04-26T08:40:13.000Z,4.67
2016-04-26T08:40:55.962Z,4.67
2016-04-26T08:41:38.947Z,4.82
2016-04-26T08:42:21.923Z,4.76
2016-04-26T08:43:04.899Z,4.75
2016-04-26T08:43:47.852Z,4.83
2016-04-26T08:44:30.830Z,4.94
2016-04-26T08:45:15.869Z,4.92
2016-04-26T08:45:58.858Z,5.02
2016-04-26T08:46:41.842Z,5.01
2016-04-26T08:47:24.784Z,5.16
2016-04-26T08:48:08.070Z,5.12
2016-04-26T08:48:52.148Z,5.16
2016-04-26T08:49:35.825Z,5.2
2016-04-26T08:50:18.799Z,5.19
2016-04-26T08:51:01.755Z,5.22
2016-04-26T08:51:44.708Z,5.18
2016-04-26T08:52:32.508Z,5.31
2016-04-26T08:53:15.715Z,5.4
2016-04-26T08:53:58.688Z,5.51
2016-04-26T08:54:41.641Z,5.52
2016-04-26T08:55:24.612Z,5.64
2016-04-26T08:56:07.553Z,5.69
2016-04-26T08:56:50.522Z,5.64
2016-04-26T08:57:35.681Z,5.67
2016-04-26T08:58:18.669Z,5.67
2016-04-26T08:59:01.625Z,5.81
2016-04-26T08:59:44.641Z,5.91
2016-04-26T09:00:27.596Z,5.99
2016-04-26T09:01:10.568Z,6.13
2016-04-26T09:01:53.537Z,6.15
2016-04-26T09:02:36.492Z,6.43
2016-04-26T09:03:19.340Z,6.47
2016-04-26T09:04:01.357Z,6.39
2016-04-26T09:04:44.154Z,6.44
2016-04-26T09:05:27.109Z,6.44
2016-04-26T09:06:10.082Z,6.47
2016-04-26T09:06:53.082Z,6.59
2016-04-26T09:07:35.865Z,6.41
2016-04-26T09:08:18.040Z,6.28
2016-04-26T09:09:01.011Z,6.28
2016-04-26T09:09:43.917Z,6.29
2016-04-26T09:10:26.873Z,6.22
2016-04-26T09:11:09.845Z,6.25
2016-04-26T09:11:52.782Z,6.12
2016-04-26T09:12:35.754Z,6.22
2016-04-26T09:13:18.725Z,6.26
2016-04-26T09:14:01.681Z,6.29
2016-04-26T09:14:44.634Z,6.35
2016-04-26T09:15:27.589Z,6.38
2016-04-26T09:16:10.561Z,6.34
2016-04-26T09:16:53.530Z,6.38
2016-04-26T09:17:36.517Z,6.47
2016-04-26T09:18:19.333Z,6.54
2016-04-26T09:19:03.194Z,6.6
2016-04-26T09:19:46.163Z,6.54
2016-04-26T09:20:29.119Z,6.6
2016-04-26T09:21:12.091Z,6.72
2016-04-26T09:21:55.466Z,6.9
2016-04-26T09:22:38.422Z,6.93
2016-04-26T09:23:21.377Z,6.86
2016-04-26T09:24:04.348Z,7.03
2016-04-26T09:24:47.316Z,7.1
2016-04-26T09:25:30.289Z,7.32
2016-04-26T09:26:13.260Z,7.43
2016-04-26T09:26:56.229Z,7.51
2016-04-26T09:27:39.200Z,7.31
2016-04-26T09:28:22.172Z,7.4
2016-04-26T09:29:05.159Z,7.37
2016-04-26T09:29:48.112Z,7.26
2016-04-26T09:30:31.115Z,7.25
2016-04-26T09:31:14.054Z,7.36
2016-04-26T09:31:57.039Z,7.21
2016-04-26T09:32:39.995Z,7.22
2016-04-26T09:33:22.826Z,7.28
2016-04-26T09:34:06.282Z,7.32
2016-04-26T09:34:49.110Z,7.25